sensor_id;sensor_type;location;lat;lon;timestamp;pressure;altitude;pressure_sealevel;temperature
65290;BMP180;51893;59.754;10.110;2023-10-13T00:02:03;100611.20;;;7.90
65290;BMP180;51893;59.754;10.110;2023-10-13T00:04:33;100615.60;;;7.90
65290;BMP180;51893;59.754;10.110;2023-10-13T00:07:03;100618.20;;;7.80
65290;BMP180;51893;59.754;10.110;2023-10-13T00:09:31;100617.60;;;7.70
65290;BMP180;51893;59.754;10.110;2023-10-13T00:12:06;100617.00;;;7.60
65290;BMP180;51893;59.754;10.110;2023-10-13T00:14:41;100613.80;;;7.60
65290;BMP180;51893;59.754;10.110;2023-10-13T00:17:08;100622.20;;;7.60
65290;BMP180;51893;59.754;10.110;2023-10-13T00:19:38;100625.00;;;7.60
65290;BMP180;51893;59.754;10.110;2023-10-13T00:22:14;100630.40;;;7.60
65290;BMP180;51893;59.754;10.110;2023-10-13T00:24:44;100622.00;;;7.50
65290;BMP180;51893;59.754;10.110;2023-10-13T00:27:16;100618.60;;;7.42
65290;BMP180;51893;59.754;10.110;2023-10-13T00:30:08;100619.00;;;7.30
65290;BMP180;51893;59.754;10.110;2023-10-13T00:32:45;100621.40;;;7.20
65290;BMP180;51893;59.754;10.110;2023-10-13T00:35:24;100621.20;;;7.10
65290;BMP180;51893;59.754;10.110;2023-10-13T00:37:52;100627.00;;;7.10
65290;BMP180;51893;59.754;10.110;2023-10-13T00:40:22;100630.20;;;7.10
65290;BMP180;51893;59.754;10.110;2023-10-13T00:42:59;100630.80;;;7.10
65290;BMP180;51893;59.754;10.110;2023-10-13T00:45:49;100639.20;;;7.10
65290;BMP180;51893;59.754;10.110;2023-10-13T00:48:35;100641.40;;;7.10
65290;BMP180;51893;59.754;10.110;2023-10-13T00:51:12;100627.20;;;7.06
65290;BMP180;51893;59.754;10.110;2023-10-13T00:53:49;100625.40;;;7.02
65290;BMP180;51893;59.754;10.110;2023-10-13T00:56:17;100630.00;;;6.96
65290;BMP180;51893;59.754;10.110;2023-10-13T00:58:48;100629.80;;;6.90
65290;BMP180;51893;59.754;10.110;2023-10-13T01:01:20;100622.40;;;6.90
65290;BMP180;51893;59.754;10.110;2023-10-13T01:03:56;100622.00;;;6.90
65290;BMP180;51893;59.754;10.110;2023-10-13T01:06:29;100633.00;;;6.80
65290;BMP180;51893;59.754;10.110;2023-10-13T01:09:04;100627.60;;;6.78
65290;BMP180;51893;59.754;10.110;2023-10-13T01:11:46;100621.60;;;6.60
65290;BMP180;51893;59.754;10.110;2023-10-13T01:14:14;100616.00;;;6.50
65290;BMP180;51893;59.754;10.110;2023-10-13T01:16:45;100607.60;;;6.50
65290;BMP180;51893;59.754;10.110;2023-10-13T01:19:16;100611.40;;;6.50
65290;BMP180;51893;59.754;10.110;2023-10-13T01:21:51;100620.40;;;6.50
65290;BMP180;51893;59.754;10.110;2023-10-13T01:24:31;100619.80;;;6.40
65290;BMP180;51893;59.754;10.110;2023-10-13T01:27:06;100620.20;;;6.40
65290;BMP180;51893;59.754;10.110;2023-10-13T01:29:47;100629.40;;;6.40
65290;BMP180;51893;59.754;10.110;2023-10-13T01:32:36;100640.20;;;6.30
65290;BMP180;51893;59.754;10.110;2023-10-13T01:35:12;100654.00;;;6.20
65290;BMP180;51893;59.754;10.110;2023-10-13T01:37:38;100653.60;;;6.16
65290;BMP180;51893;59.754;10.110;2023-10-13T01:40:06;100654.80;;;6.10
65290;BMP180;51893;59.754;10.110;2023-10-13T01:42:33;100656.20;;;6.10
65290;BMP180;51893;59.754;10.110;2023-10-13T01:45:03;100656.40;;;6.10
65290;BMP180;51893;59.754;10.110;2023-10-13T01:47:33;100653.40;;;6.10
65290;BMP180;51893;59.754;10.110;2023-10-13T01:50:03;100646.60;;;6.10
65290;BMP180;51893;59.754;10.110;2023-10-13T01:52:41;100651.20;;;6.00
65290;BMP180;51893;59.754;10.110;2023-10-13T01:55:09;100646.80;;;5.92
65290;BMP180;51893;59.754;10.110;2023-10-13T01:57:37;100648.40;;;6.00
65290;BMP180;51893;59.754;10.110;2023-10-13T02:00:05;100644.60;;;6.00
65290;BMP180;51893;59.754;10.110;2023-10-13T02:02:37;100639.60;;;6.00
65290;BMP180;51893;59.754;10.110;2023-10-13T02:05:11;100638.00;;;6.00
65290;BMP180;51893;59.754;10.110;2023-10-13T02:07:38;100637.40;;;6.00
65290;BMP180;51893;59.754;10.110;2023-10-13T02:10:06;100625.60;;;6.00
65290;BMP180;51893;59.754;10.110;2023-10-13T02:12:33;100613.60;;;5.90
65290;BMP180;51893;59.754;10.110;2023-10-13T02:15:13;100614.40;;;5.90
65290;BMP180;51893;59.754;10.110;2023-10-13T02:17:50;100606.60;;;5.90
65290;BMP180;51893;59.754;10.110;2023-10-13T02:20:18;100605.60;;;6.00
65290;BMP180;51893;59.754;10.110;2023-10-13T02:22:45;100603.60;;;6.08
65290;BMP180;51893;59.754;10.110;2023-10-13T02:25:19;100606.60;;;6.10
65290;BMP180;51893;59.754;10.110;2023-10-13T02:28:13;100598.60;;;6.10
65290;BMP180;51893;59.754;10.110;2023-10-13T02:30:42;100586.00;;;6.10
65290;BMP180;51893;59.754;10.110;2023-10-13T02:33:12;100587.40;;;6.10
65290;BMP180;51893;59.754;10.110;2023-10-13T02:35:42;100568.00;;;6.20
65290;BMP180;51893;59.754;10.110;2023-10-13T02:38:16;100559.00;;;6.12
65290;BMP180;51893;59.754;10.110;2023-10-13T02:40:55;100553.00;;;6.10
65290;BMP180;51893;59.754;10.110;2023-10-13T02:43:22;100538.60;;;6.10
65290;BMP180;51893;59.754;10.110;2023-10-13T02:45:53;100544.60;;;6.00
65290;BMP180;51893;59.754;10.110;2023-10-13T02:48:29;100553.00;;;6.06
65290;BMP180;51893;59.754;10.110;2023-10-13T02:51:09;100544.20;;;6.10
65290;BMP180;51893;59.754;10.110;2023-10-13T02:53:46;100540.00;;;6.10
65290;BMP180;51893;59.754;10.110;2023-10-13T02:56:16;100520.80;;;6.10
65290;BMP180;51893;59.754;10.110;2023-10-13T02:58:50;100510.20;;;6.10
65290;BMP180;51893;59.754;10.110;2023-10-13T03:01:24;100501.40;;;6.10
65290;BMP180;51893;59.754;10.110;2023-10-13T03:03:55;100480.20;;;6.10
65290;BMP180;51893;59.754;10.110;2023-10-13T03:06:26;100484.20;;;6.10
65290;BMP180;51893;59.754;10.110;2023-10-13T03:09:05;100483.00;;;6.10
65290;BMP180;51893;59.754;10.110;2023-10-13T03:11:47;100476.20;;;6.20
65290;BMP180;51893;59.754;10.110;2023-10-13T03:14:20;100470.20;;;6.20
65290;BMP180;51893;59.754;10.110;2023-10-13T03:17:03;100470.60;;;6.26
65290;BMP180;51893;59.754;10.110;2023-10-13T03:19:35;100462.20;;;6.28
65290;BMP180;51893;59.754;10.110;2023-10-13T03:22:10;100457.00;;;6.30
65290;BMP180;51893;59.754;10.110;2023-10-13T03:24:44;100451.40;;;6.20
65290;BMP180;51893;59.754;10.110;2023-10-13T03:27:16;100442.20;;;6.20
65290;BMP180;51893;59.754;10.110;2023-10-13T03:29:45;100450.20;;;6.20
65290;BMP180;51893;59.754;10.110;2023-10-13T03:32:20;100448.20;;;6.18
65290;BMP180;51893;59.754;10.110;2023-10-13T03:34:47;100449.00;;;6.20
65290;BMP180;51893;59.754;10.110;2023-10-13T03:37:26;100439.20;;;6.20
65290;BMP180;51893;59.754;10.110;2023-10-13T03:40:11;100434.20;;;6.20
65290;BMP180;51893;59.754;10.110;2023-10-13T03:42:48;100452.40;;;6.20
65290;BMP180;51893;59.754;10.110;2023-10-13T03:45:40;100449.20;;;6.20
65290;BMP180;51893;59.754;10.110;2023-10-13T03:48:14;100448.00;;;6.24
65290;BMP180;51893;59.754;10.110;2023-10-13T03:50:58;100445.00;;;6.30
65290;BMP180;51893;59.754;10.110;2023-10-13T03:53:38;100444.00;;;6.30
65290;BMP180;51893;59.754;10.110;2023-10-13T03:56:24;100429.40;;;6.30
65290;BMP180;51893;59.754;10.110;2023-10-13T03:59:00;100433.00;;;6.28
65290;BMP180;51893;59.754;10.110;2023-10-13T04:01:33;100426.60;;;6.30
65290;BMP180;51893;59.754;10.110;2023-10-13T04:04:15;100414.20;;;6.28
65290;BMP180;51893;59.754;10.110;2023-10-13T04:06:56;100426.00;;;6.30
65290;BMP180;51893;59.754;10.110;2023-10-13T04:09:41;100424.80;;;6.30
65290;BMP180;51893;59.754;10.110;2023-10-13T04:12:14;100418.20;;;6.30
65290;BMP180;51893;59.754;10.110;2023-10-13T04:14:52;100409.40;;;6.28
65290;BMP180;51893;59.754;10.110;2023-10-13T04:17:32;100411.60;;;6.22
65290;BMP180;51893;59.754;10.110;2023-10-13T04:20:07;100403.80;;;6.20
65290;BMP180;51893;59.754;10.110;2023-10-13T04:22:43;100401.20;;;6.20
65290;BMP180;51893;59.754;10.110;2023-10-13T04:28:13;100399.20;;;6.20
65290;BMP180;51893;59.754;10.110;2023-10-13T04:30:46;100394.20;;;6.20
65290;BMP180;51893;59.754;10.110;2023-10-13T04:33:32;100387.80;;;6.20
65290;BMP180;51893;59.754;10.110;2023-10-13T04:36:19;100378.40;;;6.20
65290;BMP180;51893;59.754;10.110;2023-10-13T04:38:48;100372.00;;;6.20
65290;BMP180;51893;59.754;10.110;2023-10-13T04:41:37;100369.80;;;6.28
65290;BMP180;51893;59.754;10.110;2023-10-13T04:44:16;100373.60;;;6.30
65290;BMP180;51893;59.754;10.110;2023-10-13T04:47:02;100357.00;;;6.20
65290;BMP180;51893;59.754;10.110;2023-10-13T04:49:32;100348.60;;;6.20
65290;BMP180;51893;59.754;10.110;2023-10-13T04:52:17;100344.60;;;6.20
65290;BMP180;51893;59.754;10.110;2023-10-13T04:55:03;100346.00;;;6.30
65290;BMP180;51893;59.754;10.110;2023-10-13T04:57:48;100322.40;;;6.30
65290;BMP180;51893;59.754;10.110;2023-10-13T05:00:20;100315.00;;;6.30
65290;BMP180;51893;59.754;10.110;2023-10-13T05:02:47;100303.80;;;6.30
65290;BMP180;51893;59.754;10.110;2023-10-13T05:05:21;100306.40;;;6.40
65290;BMP180;51893;59.754;10.110;2023-10-13T05:07:56;100305.00;;;6.40
65290;BMP180;51893;59.754;10.110;2023-10-13T05:10:42;100308.60;;;6.44
65290;BMP180;51893;59.754;10.110;2023-10-13T05:13:27;100306.60;;;6.44
65290;BMP180;51893;59.754;10.110;2023-10-13T05:16:13;100302.40;;;6.50
65290;BMP180;51893;59.754;10.110;2023-10-13T05:18:58;100292.00;;;6.50
65290;BMP180;51893;59.754;10.110;2023-10-13T05:21:43;100291.40;;;6.50
65290;BMP180;51893;59.754;10.110;2023-10-13T05:24:29;100281.40;;;6.50
65290;BMP180;51893;59.754;10.110;2023-10-13T05:27:14;100263.00;;;6.50
65290;BMP180;51893;59.754;10.110;2023-10-13T05:30:00;100259.00;;;6.50
65290;BMP180;51893;59.754;10.110;2023-10-13T05:32:46;100256.80;;;6.50
65290;BMP180;51893;59.754;10.110;2023-10-13T05:35:31;100257.20;;;6.50
65290;BMP180;51893;59.754;10.110;2023-10-13T05:38:17;100235.40;;;6.60
65290;BMP180;51893;59.754;10.110;2023-10-13T05:41:04;100217.00;;;6.60
65290;BMP180;51893;59.754;10.110;2023-10-13T05:43:52;100217.60;;;6.60
65290;BMP180;51893;59.754;10.110;2023-10-13T05:46:37;100215.20;;;6.50
65290;BMP180;51893;59.754;10.110;2023-10-13T05:49:09;100230.20;;;6.50
65290;BMP180;51893;59.754;10.110;2023-10-13T05:51:53;100231.00;;;6.60
65290;BMP180;51893;59.754;10.110;2023-10-13T05:54:34;100225.20;;;6.60
65290;BMP180;51893;59.754;10.110;2023-10-13T05:57:20;100214.00;;;6.60
65290;BMP180;51893;59.754;10.110;2023-10-13T06:00:07;100211.60;;;6.60
65290;BMP180;51893;59.754;10.110;2023-10-13T06:02:53;100228.80;;;6.70
65290;BMP180;51893;59.754;10.110;2023-10-13T06:05:39;100222.00;;;6.70
65290;BMP180;51893;59.754;10.110;2023-10-13T06:08:25;100214.20;;;6.80
65290;BMP180;51893;59.754;10.110;2023-10-13T06:11:11;100214.40;;;6.80
65290;BMP180;51893;59.754;10.110;2023-10-13T06:13:56;100211.60;;;6.90
65290;BMP180;51893;59.754;10.110;2023-10-13T06:16:42;100220.80;;;6.90
65290;BMP180;51893;59.754;10.110;2023-10-13T06:19:27;100207.40;;;7.00
65290;BMP180;51893;59.754;10.110;2023-10-13T06:22:13;100202.20;;;7.06
65290;BMP180;51893;59.754;10.110;2023-10-13T06:24:59;100202.60;;;7.10
65290;BMP180;51893;59.754;10.110;2023-10-13T06:27:44;100203.20;;;7.20
65290;BMP180;51893;59.754;10.110;2023-10-13T06:30:30;100191.60;;;7.30
65290;BMP180;51893;59.754;10.110;2023-10-13T06:32:56;100189.80;;;7.30
65290;BMP180;51893;59.754;10.110;2023-10-13T06:35:23;100191.40;;;7.40
65290;BMP180;51893;59.754;10.110;2023-10-13T06:37:51;100184.80;;;7.40
65290;BMP180;51893;59.754;10.110;2023-10-13T06:40:18;100174.60;;;7.50
65290;BMP180;51893;59.754;10.110;2023-10-13T06:42:48;100163.80;;;7.50
65290;BMP180;51893;59.754;10.110;2023-10-13T06:45:15;100164.00;;;7.50
65290;BMP180;51893;59.754;10.110;2023-10-13T06:47:43;100157.20;;;7.50
65290;BMP180;51893;59.754;10.110;2023-10-13T06:50:15;100152.60;;;7.50
65290;BMP180;51893;59.754;10.110;2023-10-13T06:52:43;100147.80;;;7.50
65290;BMP180;51893;59.754;10.110;2023-10-13T06:55:11;100158.60;;;7.40
65290;BMP180;51893;59.754;10.110;2023-10-13T06:57:45;100151.80;;;7.40
65290;BMP180;51893;59.754;10.110;2023-10-13T07:00:13;100147.00;;;7.40
65290;BMP180;51893;59.754;10.110;2023-10-13T07:02:54;100136.80;;;7.50
65290;BMP180;51893;59.754;10.110;2023-10-13T07:05:37;100134.80;;;7.50
65290;BMP180;51893;59.754;10.110;2023-10-13T07:08:11;100129.40;;;7.60
65290;BMP180;51893;59.754;10.110;2023-10-13T07:10:54;100131.40;;;7.70
65290;BMP180;51893;59.754;10.110;2023-10-13T07:13:34;100122.00;;;7.70
65290;BMP180;51893;59.754;10.110;2023-10-13T07:16:06;100111.00;;;7.80
65290;BMP180;51893;59.754;10.110;2023-10-13T07:18:55;100089.60;;;7.86
65290;BMP180;51893;59.754;10.110;2023-10-13T07:21:22;100083.00;;;7.90
65290;BMP180;51893;59.754;10.110;2023-10-13T07:23:57;100092.60;;;8.00
65290;BMP180;51893;59.754;10.110;2023-10-13T07:26:36;100080.80;;;8.00
65290;BMP180;51893;59.754;10.110;2023-10-13T07:29:24;100076.80;;;8.10
65290;BMP180;51893;59.754;10.110;2023-10-13T07:31:51;100092.40;;;8.10
65290;BMP180;51893;59.754;10.110;2023-10-13T07:34:18;100096.40;;;8.20
65290;BMP180;51893;59.754;10.110;2023-10-13T07:36:58;100088.80;;;8.30
65290;BMP180;51893;59.754;10.110;2023-10-13T07:39:31;100083.00;;;8.30
65290;BMP180;51893;59.754;10.110;2023-10-13T07:42:01;100082.80;;;8.40
65290;BMP180;51893;59.754;10.110;2023-10-13T07:44:46;100087.20;;;8.40
65290;BMP180;51893;59.754;10.110;2023-10-13T07:47:14;100078.60;;;8.50
65290;BMP180;51893;59.754;10.110;2023-10-13T07:49:43;100059.40;;;8.50
65290;BMP180;51893;59.754;10.110;2023-10-13T07:52:11;100055.20;;;8.58
65290;BMP180;51893;59.754;10.110;2023-10-13T07:54:51;100057.80;;;8.60
65290;BMP180;51893;59.754;10.110;2023-10-13T07:57:38;100045.20;;;8.60
65290;BMP180;51893;59.754;10.110;2023-10-13T08:00:22;100033.00;;;8.70
65290;BMP180;51893;59.754;10.110;2023-10-13T08:03:04;100018.60;;;8.80
65290;BMP180;51893;59.754;10.110;2023-10-13T08:05:53;100001.20;;;8.80
65290;BMP180;51893;59.754;10.110;2023-10-13T08:08:34;99995.00;;;8.90
65290;BMP180;51893;59.754;10.110;2023-10-13T08:11:10;99982.20;;;8.90
65290;BMP180;51893;59.754;10.110;2023-10-13T08:13:55;99982.40;;;8.96
65290;BMP180;51893;59.754;10.110;2023-10-13T08:16:40;99977.40;;;9.00
65290;BMP180;51893;59.754;10.110;2023-10-13T08:19:18;99963.80;;;9.10
65290;BMP180;51893;59.754;10.110;2023-10-13T08:21:47;99962.20;;;9.10
65290;BMP180;51893;59.754;10.110;2023-10-13T08:24:41;99962.40;;;9.20
65290;BMP180;51893;59.754;10.110;2023-10-13T08:27:08;99957.20;;;9.20
65290;BMP180;51893;59.754;10.110;2023-10-13T08:29:47;99947.80;;;9.30
65290;BMP180;51893;59.754;10.110;2023-10-13T08:32:28;99947.60;;;9.40
65290;BMP180;51893;59.754;10.110;2023-10-13T08:34:59;99936.40;;;9.50
65290;BMP180;51893;59.754;10.110;2023-10-13T08:37:29;99933.20;;;9.52
65290;BMP180;51893;59.754;10.110;2023-10-13T08:40:00;99931.20;;;9.60
65290;BMP180;51893;59.754;10.110;2023-10-13T08:42:51;99929.60;;;9.60
65290;BMP180;51893;59.754;10.110;2023-10-13T08:45:36;99932.60;;;9.62
65290;BMP180;51893;59.754;10.110;2023-10-13T08:48:06;99916.00;;;9.66
65290;BMP180;51893;59.754;10.110;2023-10-13T08:53:25;99901.60;;;9.70
65290;BMP180;51893;59.754;10.110;2023-10-13T08:58:50;99902.80;;;9.88
65290;BMP180;51893;59.754;10.110;2023-10-13T09:01:26;99899.80;;;9.90
65290;BMP180;51893;59.754;10.110;2023-10-13T09:04:15;99893.80;;;10.00
65290;BMP180;51893;59.754;10.110;2023-10-13T09:06:46;99877.80;;;10.00
65290;BMP180;51893;59.754;10.110;2023-10-13T09:09:43;99864.00;;;10.10
65290;BMP180;51893;59.754;10.110;2023-10-13T09:12:24;99858.20;;;10.10
65290;BMP180;51893;59.754;10.110;2023-10-13T09:15:11;99848.60;;;10.10
65290;BMP180;51893;59.754;10.110;2023-10-13T09:17:50;99847.00;;;10.16
65290;BMP180;51893;59.754;10.110;2023-10-13T09:20:28;99841.60;;;10.20
65290;BMP180;51893;59.754;10.110;2023-10-13T09:23:14;99817.80;;;10.28
65290;BMP180;51893;59.754;10.110;2023-10-13T09:25:52;99807.60;;;10.30
65290;BMP180;51893;59.754;10.110;2023-10-13T09:28:28;99798.80;;;10.40
65290;BMP180;51893;59.754;10.110;2023-10-13T09:30:56;99802.20;;;10.40
65290;BMP180;51893;59.754;10.110;2023-10-13T09:33:30;99800.00;;;10.50
65290;BMP180;51893;59.754;10.110;2023-10-13T09:35:59;99789.60;;;10.50
65290;BMP180;51893;59.754;10.110;2023-10-13T09:38:37;99785.20;;;10.60
65290;BMP180;51893;59.754;10.110;2023-10-13T09:41:08;99793.40;;;10.60
65290;BMP180;51893;59.754;10.110;2023-10-13T09:43:45;99792.40;;;10.60
65290;BMP180;51893;59.754;10.110;2023-10-13T09:46:19;99785.60;;;10.60
65290;BMP180;51893;59.754;10.110;2023-10-13T09:48:56;99780.00;;;10.60
65290;BMP180;51893;59.754;10.110;2023-10-13T09:51:34;99771.40;;;10.70
65290;BMP180;51893;59.754;10.110;2023-10-13T09:54:13;99763.00;;;10.70
65290;BMP180;51893;59.754;10.110;2023-10-13T09:57:10;99746.60;;;10.70
65290;BMP180;51893;59.754;10.110;2023-10-13T09:59:48;99737.60;;;10.70
65290;BMP180;51893;59.754;10.110;2023-10-13T10:02:35;99723.80;;;10.70
65290;BMP180;51893;59.754;10.110;2023-10-13T10:05:08;99710.40;;;10.78
65290;BMP180;51893;59.754;10.110;2023-10-13T10:07:56;99704.60;;;10.80
65290;BMP180;51893;59.754;10.110;2023-10-13T10:10:48;99688.80;;;10.80
65290;BMP180;51893;59.754;10.110;2023-10-13T10:17:11;99659.00;;;10.70
65290;BMP180;51893;59.754;10.110;2023-10-13T10:19:54;99651.20;;;10.78
65290;BMP180;51893;59.754;10.110;2023-10-13T10:22:29;99641.80;;;10.80
65290;BMP180;51893;59.754;10.110;2023-10-13T10:25:05;99635.20;;;10.80
65290;BMP180;51893;59.754;10.110;2023-10-13T10:28:00;99628.40;;;10.80
65290;BMP180;51893;59.754;10.110;2023-10-13T10:30:29;99615.80;;;10.88
65290;BMP180;51893;59.754;10.110;2023-10-13T10:32:57;99608.20;;;10.90
65290;BMP180;51893;59.754;10.110;2023-10-13T10:35:36;99604.20;;;11.00
65290;BMP180;51893;59.754;10.110;2023-10-13T10:40:57;99571.60;;;11.00
65290;BMP180;51893;59.754;10.110;2023-10-13T10:43:29;99576.80;;;11.00
65290;BMP180;51893;59.754;10.110;2023-10-13T10:46:34;99570.80;;;11.10
65290;BMP180;51893;59.754;10.110;2023-10-13T10:49:07;99569.40;;;11.10
65290;BMP180;51893;59.754;10.110;2023-10-13T10:51:44;99553.40;;;11.10
65290;BMP180;51893;59.754;10.110;2023-10-13T10:54:19;99542.80;;;11.10
65290;BMP180;51893;59.754;10.110;2023-10-13T10:56:47;99533.40;;;11.18
65290;BMP180;51893;59.754;10.110;2023-10-13T10:59:19;99530.40;;;11.20
65290;BMP180;51893;59.754;10.110;2023-10-13T11:01:47;99511.20;;;11.20
65290;BMP180;51893;59.754;10.110;2023-10-13T11:04:15;99506.20;;;11.20
65290;BMP180;51893;59.754;10.110;2023-10-13T11:06:47;99500.20;;;11.28
65290;BMP180;51893;59.754;10.110;2023-10-13T11:09:15;99490.80;;;11.30
65290;BMP180;51893;59.754;10.110;2023-10-13T11:11:55;99483.80;;;11.34
65290;BMP180;51893;59.754;10.110;2023-10-13T11:14:27;99475.80;;;11.38
65290;BMP180;51893;59.754;10.110;2023-10-13T11:16:57;99473.40;;;11.40
65290;BMP180;51893;59.754;10.110;2023-10-13T11:19:39;99454.80;;;11.40
65290;BMP180;51893;59.754;10.110;2023-10-13T11:22:16;99432.20;;;11.40
65290;BMP180;51893;59.754;10.110;2023-10-13T11:24:56;99420.80;;;11.40
65290;BMP180;51893;59.754;10.110;2023-10-13T11:27:31;99421.20;;;11.40
65290;BMP180;51893;59.754;10.110;2023-10-13T11:30:19;99406.20;;;11.40
65290;BMP180;51893;59.754;10.110;2023-10-13T11:33:03;99406.00;;;11.40
65290;BMP180;51893;59.754;10.110;2023-10-13T11:35:39;99388.60;;;11.40
65290;BMP180;51893;59.754;10.110;2023-10-13T11:38:29;99377.00;;;11.50
65290;BMP180;51893;59.754;10.110;2023-10-13T11:41:08;99364.00;;;11.50
65290;BMP180;51893;59.754;10.110;2023-10-13T11:43:50;99364.20;;;11.50
65290;BMP180;51893;59.754;10.110;2023-10-13T11:46:26;99347.20;;;11.50
65290;BMP180;51893;59.754;10.110;2023-10-13T11:49:08;99342.00;;;11.50
65290;BMP180;51893;59.754;10.110;2023-10-13T11:51:54;99327.00;;;11.50
65290;BMP180;51893;59.754;10.110;2023-10-13T11:54:43;99313.20;;;11.50
65290;BMP180;51893;59.754;10.110;2023-10-13T11:57:10;99297.60;;;11.50
65290;BMP180;51893;59.754;10.110;2023-10-13T11:59:37;99289.00;;;11.50
65290;BMP180;51893;59.754;10.110;2023-10-13T12:02:10;99282.00;;;11.50
65290;BMP180;51893;59.754;10.110;2023-10-13T12:04:39;99273.00;;;11.54
65290;BMP180;51893;59.754;10.110;2023-10-13T12:07:19;99272.00;;;11.60
65290;BMP180;51893;59.754;10.110;2023-10-13T12:09:51;99263.60;;;11.60
65290;BMP180;51893;59.754;10.110;2023-10-13T12:12:25;99247.80;;;11.50
65290;BMP180;51893;59.754;10.110;2023-10-13T12:14:53;99237.60;;;11.50
65290;BMP180;51893;59.754;10.110;2023-10-13T12:17:29;99229.40;;;11.52
65290;BMP180;51893;59.754;10.110;2023-10-13T12:20:07;99224.20;;;11.60
65290;BMP180;51893;59.754;10.110;2023-10-13T12:22:39;99215.40;;;11.60
65290;BMP180;51893;59.754;10.110;2023-10-13T12:25:06;99206.00;;;11.60
65290;BMP180;51893;59.754;10.110;2023-10-13T12:27:54;99192.00;;;11.60
65290;BMP180;51893;59.754;10.110;2023-10-13T12:30:24;99187.20;;;11.60
65290;BMP180;51893;59.754;10.110;2023-10-13T12:33:19;99172.20;;;11.60
65290;BMP180;51893;59.754;10.110;2023-10-13T12:35:57;99158.80;;;11.60
65290;BMP180;51893;59.754;10.110;2023-10-13T12:38:35;99146.20;;;11.60
65290;BMP180;51893;59.754;10.110;2023-10-13T12:41:22;99138.00;;;11.62
65290;BMP180;51893;59.754;10.110;2023-10-13T12:44:07;99124.40;;;11.60
65290;BMP180;51893;59.754;10.110;2023-10-13T12:46:53;99111.80;;;11.62
65290;BMP180;51893;59.754;10.110;2023-10-13T12:49:40;99093.60;;;11.70
65290;BMP180;51893;59.754;10.110;2023-10-13T12:52:12;99083.40;;;11.70
65290;BMP180;51893;59.754;10.110;2023-10-13T12:54:58;99069.40;;;11.70
65290;BMP180;51893;59.754;10.110;2023-10-13T12:57:26;99059.40;;;11.70
65290;BMP180;51893;59.754;10.110;2023-10-13T12:59:54;99053.00;;;11.70
65290;BMP180;51893;59.754;10.110;2023-10-13T13:02:24;99051.20;;;11.70
65290;BMP180;51893;59.754;10.110;2023-10-13T13:04:55;99031.80;;;11.70
65290;BMP180;51893;59.754;10.110;2023-10-13T13:07:32;99016.80;;;11.70
65290;BMP180;51893;59.754;10.110;2023-10-13T13:10:15;99015.20;;;11.72
65290;BMP180;51893;59.754;10.110;2023-10-13T13:12:42;99012.60;;;11.70
65290;BMP180;51893;59.754;10.110;2023-10-13T13:15:10;99005.00;;;11.70
65290;BMP180;51893;59.754;10.110;2023-10-13T13:17:39;99000.60;;;11.70
65290;BMP180;51893;59.754;10.110;2023-10-13T13:20:07;98989.60;;;11.70
65290;BMP180;51893;59.754;10.110;2023-10-13T13:22:38;98984.00;;;11.70
65290;BMP180;51893;59.754;10.110;2023-10-13T13:25:06;98977.00;;;11.78
65290;BMP180;51893;59.754;10.110;2023-10-13T13:27:39;98965.40;;;11.80
65290;BMP180;51893;59.754;10.110;2023-10-13T13:30:09;98947.60;;;11.80
65290;BMP180;51893;59.754;10.110;2023-10-13T13:32:39;98939.80;;;11.80
65290;BMP180;51893;59.754;10.110;2023-10-13T13:35:07;98928.20;;;11.80
65290;BMP180;51893;59.754;10.110;2023-10-13T13:37:36;98922.20;;;11.82
65290;BMP180;51893;59.754;10.110;2023-10-13T13:40:04;98910.40;;;11.90
65290;BMP180;51893;59.754;10.110;2023-10-13T13:42:45;98901.80;;;11.90
65290;BMP180;51893;59.754;10.110;2023-10-13T13:45:17;98890.20;;;11.90
65290;BMP180;51893;59.754;10.110;2023-10-13T13:48:10;98873.60;;;11.90
65290;BMP180;51893;59.754;10.110;2023-10-13T13:50:43;98860.80;;;11.90
65290;BMP180;51893;59.754;10.110;2023-10-13T13:53:11;98845.60;;;11.90
65290;BMP180;51893;59.754;10.110;2023-10-13T13:55:38;98833.80;;;11.90
65290;BMP180;51893;59.754;10.110;2023-10-13T13:58:06;98830.00;;;11.90
65290;BMP180;51893;59.754;10.110;2023-10-13T14:00:37;98829.80;;;12.00
65290;BMP180;51893;59.754;10.110;2023-10-13T14:03:08;98823.20;;;12.00
65290;BMP180;51893;59.754;10.110;2023-10-13T14:05:43;98816.60;;;12.00
65290;BMP180;51893;59.754;10.110;2023-10-13T14:08:09;98810.80;;;12.00
65290;BMP180;51893;59.754;10.110;2023-10-13T14:10:38;98797.40;;;12.00
65290;BMP180;51893;59.754;10.110;2023-10-13T14:13:43;98789.40;;;12.00
65290;BMP180;51893;59.754;10.110;2023-10-13T14:16:19;98781.40;;;12.00
65290;BMP180;51893;59.754;10.110;2023-10-13T14:18:50;98767.20;;;12.00
65290;BMP180;51893;59.754;10.110;2023-10-13T14:21:18;98763.80;;;12.02
65290;BMP180;51893;59.754;10.110;2023-10-13T14:23:47;98762.80;;;12.10
65290;BMP180;51893;59.754;10.110;2023-10-13T14:26:15;98762.80;;;12.10
65290;BMP180;51893;59.754;10.110;2023-10-13T14:28:47;98758.60;;;12.02
65290;BMP180;51893;59.754;10.110;2023-10-13T14:31:36;98750.60;;;12.00
65290;BMP180;51893;59.754;10.110;2023-10-13T14:34:05;98751.00;;;12.00
65290;BMP180;51893;59.754;10.110;2023-10-13T14:36:35;98734.60;;;12.00
65290;BMP180;51893;59.754;10.110;2023-10-13T14:39:05;98745.20;;;11.98
65290;BMP180;51893;59.754;10.110;2023-10-13T14:41:37;98737.20;;;11.90
65290;BMP180;51893;59.754;10.110;2023-10-13T14:44:07;98732.80;;;11.90
65290;BMP180;51893;59.754;10.110;2023-10-13T14:46:35;98729.40;;;11.90
65290;BMP180;51893;59.754;10.110;2023-10-13T14:49:06;98716.40;;;11.90
65290;BMP180;51893;59.754;10.110;2023-10-13T14:51:33;98713.00;;;11.86
65290;BMP180;51893;59.754;10.110;2023-10-13T14:54:00;98701.40;;;11.88
65290;BMP180;51893;59.754;10.110;2023-10-13T14:56:27;98701.60;;;11.90
65290;BMP180;51893;59.754;10.110;2023-10-13T14:58:58;98694.40;;;11.90
65290;BMP180;51893;59.754;10.110;2023-10-13T15:01:27;98691.40;;;11.86
65290;BMP180;51893;59.754;10.110;2023-10-13T15:03:54;98675.60;;;11.80